createdAt,value
2019-03-26T00:01:54.717Z,4.53
2019-03-26T00:04:59.762Z,4.73
2019-03-26T00:08:04.493Z,4.27
2019-03-26T00:11:09.461Z,4.30
2019-03-26T00:17:18.786Z,4.50
2019-03-26T00:23:27.645Z,5.20
2019-03-26T00:29:38.080Z,5.30
2019-03-26T00:32:42.684Z,4.20
2019-03-26T00:35:47.453Z,5.53
2019-03-26T00:38:52.503Z,5.70
2019-03-26T00:41:57.303Z,5.97
2019-03-26T00:45:02.141Z,5.37
2019-03-26T00:48:07.013Z,5.17
2019-03-26T00:51:12.085Z,4.93
2019-03-26T00:54:16.747Z,5.40
2019-03-26T00:57:21.615Z,4.80
2019-03-26T01:00:39.311Z,5.00
2019-03-26T01:03:44.142Z,4.53
2019-03-26T01:06:49.142Z,4.73
2019-03-26T01:09:54.497Z,4.93
2019-03-26T01:12:59.301Z,6.17
2019-03-26T01:16:04.763Z,5.43
2019-03-26T01:22:14.780Z,5.37
2019-03-26T01:28:24.294Z,5.67
2019-03-26T01:31:29.692Z,5.30
2019-03-26T01:37:40.315Z,5.47
2019-03-26T01:40:45.387Z,5.43
2019-03-26T01:43:50.745Z,6.03
2019-03-26T01:49:59.844Z,5.70
2019-03-26T01:53:04.755Z,5.83
2019-03-26T01:59:15.273Z,5.90
2019-03-26T02:02:20.484Z,5.60
2019-03-26T02:05:25.274Z,6.47
2019-03-26T02:08:30.139Z,6.30
2019-03-26T02:11:36.396Z,6.27
2019-03-26T02:14:41.308Z,6.07
2019-03-26T02:17:46.285Z,5.90
2019-03-26T02:20:51.290Z,6.37
2019-03-26T02:23:56.029Z,5.60
2019-03-26T02:27:01.730Z,5.97
2019-03-26T02:33:12.532Z,6.07
2019-03-26T02:36:18.810Z,5.80
2019-03-26T02:39:24.332Z,5.73
2019-03-26T02:42:29.322Z,5.47
2019-03-26T02:45:34.307Z,4.97
2019-03-26T02:48:39.215Z,5.50
2019-03-26T02:51:43.780Z,4.93
2019-03-26T02:54:48.911Z,5.20
2019-03-26T02:57:53.714Z,4.70
2019-03-26T03:04:02.747Z,5.73
2019-03-26T03:10:12.296Z,5.80
2019-03-26T03:13:17.310Z,5.13
2019-03-26T03:16:22.281Z,6.33
2019-03-26T03:19:27.303Z,5.47
2019-03-26T03:22:32.067Z,5.83
2019-03-26T03:25:37.584Z,6.13
2019-03-26T03:28:42.672Z,5.87
2019-03-26T03:31:47.721Z,5.77
2019-03-26T03:34:52.660Z,6.10
2019-03-26T03:37:57.459Z,5.43
2019-03-26T03:41:02.334Z,6.10
2019-03-26T03:44:07.561Z,5.80
2019-03-26T03:47:12.747Z,6.30
2019-03-26T03:53:21.435Z,6.73
2019-03-26T03:56:27.251Z,6.73
2019-03-26T03:59:31.966Z,5.67
2019-03-26T04:02:36.758Z,6.40
2019-03-26T04:05:41.933Z,7.13
2019-03-26T04:08:46.937Z,5.70
2019-03-26T04:11:52.271Z,6.87
2019-03-26T04:14:56.885Z,6.43
2019-03-26T04:18:01.948Z,5.87
2019-03-26T04:21:07.672Z,5.37
2019-03-26T04:24:13.500Z,6.03
2019-03-26T04:27:18.293Z,6.00
2019-03-26T04:30:31.710Z,5.67
2019-03-26T04:36:40.492Z,5.93
2019-03-26T04:39:46.382Z,4.90
2019-03-26T04:42:51.387Z,5.27
2019-03-26T04:45:56.540Z,5.40
2019-03-26T04:49:01.751Z,5.37
2019-03-26T04:58:14.933Z,4.77
2019-03-26T05:01:20.039Z,5.03
2019-03-26T05:04:24.761Z,5.00
2019-03-26T05:07:29.496Z,4.17
2019-03-26T05:10:35.256Z,3.90
2019-03-26T05:13:41.014Z,4.60
2019-03-26T05:16:46.371Z,4.20
2019-03-26T05:19:51.240Z,4.77
2019-03-26T05:22:56.397Z,4.07
2019-03-26T05:26:01.269Z,4.00
2019-03-26T05:29:06.580Z,3.60
2019-03-26T05:32:12.324Z,4.30
2019-03-26T05:35:17.063Z,3.83
2019-03-26T05:38:22.233Z,4.07
2019-03-26T05:41:27.386Z,3.93
2019-03-26T05:44:32.374Z,3.73
2019-03-26T05:47:38.832Z,3.47
2019-03-26T05:50:44.331Z,4.03
2019-03-26T05:53:49.369Z,3.97
2019-03-26T05:56:54.338Z,3.80
2019-03-26T06:00:00.373Z,3.57
2019-03-26T06:03:05.266Z,4.40
2019-03-26T06:06:10.254Z,4.20
2019-03-26T06:09:15.273Z,3.40
2019-03-26T06:12:20.427Z,3.97
2019-03-26T06:15:25.369Z,4.20
2019-03-26T06:18:30.486Z,3.70
2019-03-26T06:21:35.664Z,3.20
2019-03-26T06:24:40.606Z,3.50
2019-03-26T06:27:45.551Z,3.20
2019-03-26T06:30:50.879Z,3.63
2019-03-26T06:33:55.674Z,3.80
2019-03-26T06:40:07.808Z,3.37
2019-03-26T06:43:12.927Z,3.37
2019-03-26T06:46:18.040Z,3.80
2019-03-26T06:49:24.531Z,3.50
2019-03-26T06:52:29.268Z,3.10
2019-03-26T06:55:34.283Z,3.33
2019-03-26T06:58:39.852Z,3.00
2019-03-26T07:01:44.543Z,3.37
2019-03-26T07:04:50.170Z,3.63
2019-03-26T07:07:55.718Z,3.17
2019-03-26T07:14:05.108Z,3.67
2019-03-26T07:17:09.745Z,3.10
2019-03-26T07:23:18.972Z,2.80
2019-03-26T07:26:24.332Z,2.73
2019-03-26T07:29:29.578Z,2.93
2019-03-26T07:32:34.954Z,2.60
2019-03-26T07:35:41.560Z,3.57
2019-03-26T07:38:46.568Z,3.03
2019-03-26T07:41:51.439Z,2.77
2019-03-26T07:44:56.394Z,3.30
2019-03-26T07:48:01.395Z,2.70
2019-03-26T07:51:06.805Z,2.60
2019-03-26T07:54:13.677Z,1.90
2019-03-26T08:00:38.637Z,1.80
2019-03-26T08:03:43.546Z,2.27
2019-03-26T08:06:48.694Z,1.40
2019-03-26T08:12:58.143Z,1.53
2019-03-26T08:16:03.485Z,1.30
2019-03-26T08:19:08.258Z,1.20
2019-03-26T08:22:12.943Z,1.33
2019-03-26T08:25:18.260Z,1.00
2019-03-26T08:28:23.500Z,1.30
2019-03-26T08:31:28.699Z,0.83
2019-03-26T08:37:38.140Z,1.30
2019-03-26T08:40:43.271Z,1.83
2019-03-26T08:43:48.375Z,1.17
2019-03-26T08:46:53.750Z,1.43
2019-03-26T08:49:58.736Z,1.40
2019-03-26T08:53:04.244Z,1.33
2019-03-26T08:56:09.074Z,1.87
2019-03-26T08:59:13.885Z,1.60
2019-03-26T09:02:18.541Z,2.50
2019-03-26T09:05:23.461Z,2.13
2019-03-26T09:08:28.359Z,1.80
2019-03-26T09:11:33.455Z,1.30
2019-03-26T09:17:44.429Z,1.43
2019-03-26T09:20:49.252Z,1.50
2019-03-26T09:23:54.391Z,1.70
2019-03-26T09:26:59.285Z,2.00
2019-03-26T09:30:06.455Z,1.80
2019-03-26T09:33:11.442Z,1.40
2019-03-26T09:36:17.902Z,1.50
2019-03-26T09:39:22.573Z,1.17
2019-03-26T09:42:27.249Z,1.60
2019-03-26T09:45:32.908Z,1.60
2019-03-26T09:48:37.710Z,1.20
2019-03-26T09:54:46.529Z,2.43
2019-03-26T09:57:53.620Z,2.50
2019-03-26T10:00:58.919Z,2.30
2019-03-26T10:04:04.022Z,2.53
2019-03-26T10:07:20.762Z,1.43
2019-03-26T10:10:16.697Z,1.50
2019-03-26T10:16:26.289Z,1.77
2019-03-26T10:19:32.340Z,1.97
2019-03-26T10:22:39.259Z,1.63
2019-03-26T10:25:44.527Z,2.00
2019-03-26T10:28:49.640Z,2.87
2019-03-26T10:31:54.781Z,2.10
2019-03-26T10:34:59.881Z,1.85
2019-03-26T10:38:05.446Z,1.70
2019-03-26T10:41:11.556Z,3.20
2019-03-26T10:44:16.300Z,1.50
2019-03-26T10:47:21.736Z,2.07
2019-03-26T10:53:31.519Z,1.40
2019-03-26T10:56:36.834Z,2.10
2019-03-26T10:59:42.494Z,1.10
2019-03-26T11:02:47.963Z,1.40
2019-03-26T11:05:53.359Z,1.03
2019-03-26T11:08:58.613Z,1.57
2019-03-26T11:12:04.126Z,0.93
2019-03-26T11:15:09.752Z,1.43
2019-03-26T11:21:20.005Z,1.60
2019-03-26T11:24:25.143Z,2.10
2019-03-26T11:27:30.620Z,2.03
2019-03-26T11:30:35.995Z,1.70
2019-03-26T11:33:40.706Z,1.90
2019-03-26T11:39:50.281Z,1.90
2019-03-26T11:42:55.528Z,1.50
2019-03-26T11:46:00.440Z,1.43
2019-03-26T11:49:05.490Z,1.30
2019-03-26T11:52:10.252Z,1.30
2019-03-26T11:55:16.281Z,1.23
2019-03-26T11:58:30.517Z,1.83
2019-03-26T12:01:28.640Z,1.13
2019-03-26T12:04:33.333Z,1.50
2019-03-26T12:07:38.765Z,1.13
2019-03-26T12:13:48.386Z,1.10
2019-03-26T12:16:53.285Z,1.37
2019-03-26T12:19:58.259Z,1.23
2019-03-26T12:23:03.301Z,1.67
2019-03-26T12:26:09.277Z,1.17
2019-03-26T12:29:13.990Z,1.27
2019-03-26T12:32:18.737Z,1.50
2019-03-26T12:35:29.687Z,1.03
2019-03-26T12:38:34.594Z,1.60
2019-03-26T12:41:39.324Z,1.20
2019-03-26T12:44:44.512Z,1.30
2019-03-26T12:47:49.344Z,0.90
2019-03-26T12:50:54.270Z,1.40
2019-03-26T12:53:59.355Z,1.60
2019-03-26T12:58:36.278Z,0.90
2019-03-26T13:15:12.514Z,0.90
2019-03-26T13:18:17.723Z,1.40
2019-03-26T13:21:23.266Z,1.17
2019-03-26T13:24:28.287Z,1.40
2019-03-26T13:27:33.039Z,1.70
2019-03-26T13:30:37.762Z,1.50
2019-03-26T13:36:50.081Z,1.83
2019-03-26T13:39:54.840Z,1.73
2019-03-26T13:43:00.317Z,1.20
2019-03-26T13:46:05.357Z,0.90
2019-03-26T13:49:11.432Z,1.50
2019-03-26T13:52:16.311Z,1.20
2019-03-26T13:55:21.404Z,1.40
2019-03-26T13:58:26.353Z,0.90
2019-03-26T14:01:31.690Z,1.00
2019-03-26T14:07:42.447Z,0.90
2019-03-26T14:10:47.367Z,1.20
2019-03-26T14:13:54.056Z,1.20
2019-03-26T14:16:59.365Z,2.33
2019-03-26T14:20:05.333Z,1.20
2019-03-26T14:23:10.304Z,1.60
2019-03-26T14:26:15.382Z,1.27
2019-03-26T14:29:20.461Z,1.17
2019-03-26T14:32:25.132Z,1.20
2019-03-26T14:35:30.160Z,1.00
2019-03-26T14:38:36.854Z,1.67
2019-03-26T14:41:44.308Z,1.23
2019-03-26T14:44:50.164Z,1.60
2019-03-26T14:47:55.443Z,1.30
2019-03-26T14:51:02.059Z,1.30
2019-03-26T14:54:07.704Z,0.93
2019-03-26T15:00:18.265Z,1.20
2019-03-26T15:03:23.465Z,1.60
2019-03-26T15:09:34.506Z,1.03
2019-03-26T15:12:40.430Z,1.27
2019-03-26T15:15:45.304Z,1.30
2019-03-26T15:18:51.749Z,2.33
2019-03-26T15:25:02.267Z,2.17
2019-03-26T15:28:07.548Z,1.30
2019-03-26T15:31:13.230Z,0.93
2019-03-26T15:34:18.651Z,1.30
2019-03-26T15:37:23.367Z,1.60
2019-03-26T15:40:28.341Z,1.30
2019-03-26T15:43:35.325Z,1.40
2019-03-26T15:46:40.337Z,1.77
2019-03-26T15:49:46.321Z,1.13
2019-03-26T15:52:51.259Z,1.43
2019-03-26T15:55:57.778Z,1.53
2019-03-26T15:59:03.295Z,1.35
2019-03-26T16:02:08.228Z,1.23
2019-03-26T16:05:13.300Z,1.17
2019-03-26T16:08:18.704Z,1.30
2019-03-26T16:11:35.059Z,1.00
2019-03-26T16:14:32.557Z,1.50
2019-03-26T16:17:37.286Z,1.50
2019-03-26T16:20:43.211Z,1.47
2019-03-26T16:23:48.283Z,1.73
2019-03-26T16:26:53.431Z,1.70
2019-03-26T16:29:59.432Z,1.90
2019-03-26T16:33:05.338Z,1.83
2019-03-26T16:36:10.126Z,1.47
2019-03-26T16:39:14.887Z,1.97
2019-03-26T16:42:20.317Z,1.33
2019-03-26T16:45:27.132Z,1.33
2019-03-26T16:48:32.301Z,1.97
2019-03-26T16:51:37.883Z,1.60
2019-03-26T16:54:44.330Z,1.87
2019-03-26T16:57:50.227Z,1.83
2019-03-26T17:00:56.259Z,2.57
2019-03-26T17:04:01.736Z,1.83
2019-03-26T17:07:07.933Z,1.60
2019-03-26T17:10:13.251Z,1.80
2019-03-26T17:13:19.364Z,1.80
2019-03-26T17:16:24.546Z,3.40
2019-03-26T17:19:32.470Z,13.43
2019-03-26T17:22:37.430Z,3.60
2019-03-26T17:25:42.905Z,1.87
2019-03-26T17:28:48.170Z,1.53
2019-03-26T17:31:52.962Z,1.73
2019-03-26T17:34:57.669Z,1.50
2019-03-26T17:41:07.309Z,1.67
2019-03-26T17:44:12.287Z,1.63
2019-03-26T17:47:18.299Z,2.10
2019-03-26T17:50:24.499Z,3.37
2019-03-26T17:53:33.975Z,3.63
2019-03-26T17:56:39.356Z,4.17
2019-03-26T17:59:45.727Z,1.67
2019-03-26T18:05:54.612Z,1.67
2019-03-26T18:09:01.610Z,1.97
2019-03-26T18:12:08.286Z,2.07
2019-03-26T18:15:13.479Z,1.53
2019-03-26T18:18:18.424Z,1.90
2019-03-26T18:21:24.378Z,1.57
2019-03-26T18:24:29.717Z,2.07
2019-03-26T18:27:35.568Z,2.10
2019-03-26T18:30:43.413Z,1.87
2019-03-26T18:33:50.334Z,2.40
2019-03-26T18:36:56.300Z,2.27
2019-03-26T18:40:01.485Z,3.00
2019-03-26T18:43:06.440Z,2.00
2019-03-26T18:46:11.301Z,2.07
2019-03-26T18:49:16.419Z,2.10
2019-03-26T18:52:21.759Z,2.30
2019-03-26T18:58:33.919Z,2.10
2019-03-26T19:01:40.746Z,2.10
2019-03-26T19:07:50.870Z,2.43
2019-03-26T19:10:56.328Z,2.30
2019-03-26T19:14:03.288Z,1.57
2019-03-26T19:17:08.842Z,2.20
2019-03-26T19:20:13.983Z,1.87
2019-03-26T19:23:19.262Z,2.10
2019-03-26T19:26:24.328Z,1.80
2019-03-26T19:29:29.552Z,2.50
2019-03-26T19:32:34.499Z,2.07
2019-03-26T19:35:39.450Z,1.90
2019-03-26T19:38:44.307Z,2.00
2019-03-26T19:41:50.975Z,2.00
2019-03-26T19:44:55.732Z,2.13
2019-03-26T19:51:07.382Z,2.17
2019-03-26T19:54:12.255Z,2.20
2019-03-26T19:57:19.626Z,2.20
2019-03-26T20:00:26.814Z,2.70
2019-03-26T20:03:32.236Z,2.50
2019-03-26T20:06:37.555Z,2.87
2019-03-26T20:09:42.559Z,2.60
2019-03-26T20:12:47.749Z,2.70
2019-03-26T20:18:57.626Z,2.70
2019-03-26T20:22:03.400Z,2.90
2019-03-26T20:25:08.358Z,3.17
2019-03-26T20:28:14.802Z,3.60
2019-03-26T20:31:20.395Z,3.37
2019-03-26T20:34:26.689Z,3.27
2019-03-26T20:40:36.953Z,3.67
2019-03-26T20:43:41.758Z,3.47
2019-03-26T20:49:52.101Z,3.30
2019-03-26T20:52:58.295Z,3.50
2019-03-26T20:56:03.357Z,3.07
2019-03-26T20:59:08.783Z,4.60
2019-03-26T21:02:13.880Z,3.50
2019-03-26T21:05:19.295Z,4.90
2019-03-26T21:08:24.632Z,4.10
2019-03-26T21:11:30.295Z,3.60
2019-03-26T21:14:35.552Z,3.53
2019-03-26T21:17:40.545Z,3.37
2019-03-26T21:20:45.616Z,3.87
2019-03-26T21:23:50.529Z,3.80
2019-03-26T21:26:55.524Z,3.27
2019-03-26T21:30:10.080Z,3.33
2019-03-26T21:33:08.404Z,3.57
2019-03-26T21:36:13.864Z,3.17
2019-03-26T21:39:20.401Z,3.50
2019-03-26T21:42:27.675Z,3.77
2019-03-26T21:45:40.646Z,3.83
2019-03-26T21:48:45.468Z,3.33
2019-03-26T21:51:50.573Z,3.37
2019-03-26T21:54:55.332Z,3.87
2019-03-26T21:58:00.712Z,4.57
2019-03-26T22:01:07.400Z,4.53
2019-03-26T22:04:12.759Z,4.83
2019-03-26T22:07:19.465Z,5.40
2019-03-26T22:10:24.403Z,4.63
2019-03-26T22:13:30.021Z,6.10
2019-03-26T22:16:36.008Z,5.63
2019-03-26T22:19:40.980Z,4.73
2019-03-26T22:22:46.009Z,4.27
2019-03-26T22:25:51.268Z,3.80
2019-03-26T22:28:56.059Z,4.20
2019-03-26T22:32:02.763Z,4.73
2019-03-26T22:41:18.686Z,5.03
2019-03-26T22:47:30.333Z,4.63
2019-03-26T22:50:35.548Z,5.10
2019-03-26T22:53:41.721Z,4.70
2019-03-26T22:59:50.947Z,5.10
2019-03-26T23:02:55.655Z,4.87
2019-03-26T23:06:00.323Z,4.60
2019-03-26T23:09:06.276Z,4.90
2019-03-26T23:12:12.830Z,4.63
2019-03-26T23:15:24.277Z,4.30
2019-03-26T23:18:28.967Z,4.23
2019-03-26T23:21:34.342Z,4.33
2019-03-26T23:24:39.316Z,5.07
2019-03-26T23:27:44.066Z,4.50
2019-03-26T23:30:49.710Z,4.90
2019-03-26T23:36:58.769Z,4.77
2019-03-26T23:40:04.091Z,4.97
2019-03-26T23:43:09.056Z,5.17
2019-03-26T23:46:13.666Z,4.23
2019-03-26T23:52:23.279Z,4.77
2019-03-26T23:55:27.953Z,4.97
2019-03-26T23:58:32.799Z,4.70
